Portada
METAR-TAF:

METAR-TAF

Aeroports :

Roben-Hood Airport

Big Rapids, Michigan, Estats Units d'Amèrica

latitud: 43-43-21N, longitud: 085-30-15W, altitud: 302 m

Observació

L'informe es va fer fa 29 minuts, a les 07:55 UTC
Vent 8 kt del Sud-Oest amb ràfegues de 14 kt
Temperatura -2°C
Humitat 74%
Pressió 1024 hPa
Visibilitat: 16.1 km
Cel cobert a una alçada de 1700 ft

METAR: KRQB 220755Z AUTO 22008G14KT 10SM OVC017 M02/M06 A3024 RMK AO2 T10231057

Hora: 03:24 (08:24 UTC)


TAF: manca

Observacions i pronòstics meteorològics de més de 4000 aeroports (METAR i TAF).

Les estacions disponibles són els punts grocs i vermells al mapa.

Posi el ratolí al punt desitjat per veure el nom de l'estació.

Feu clic per veure les observacions i els pronòstics meteorològics.

Per canviar el mapa: feu clic els botons verds amb una creu de color negre per apropar; al botó verd amb un guió per allunyar la imatge; o en les fletxes verdes per a mapes adjacents.


METAR-TAF: